Huvudsida
METAR-TAF:

METAR-TAF

Flygplatser :

Monte Malanotte

Prato Nevoso, Italien

latitud: 44-15N, longitud: 007-48E, höjd: 1741 m

Aktuellt väderrapport

Denna rapport gjordes för 9 timmar och 57 minuter sedan, klockan 17:55 UTC
Vind 8 kt från ost
Temperatur 26°C
Fuktighet 79%
Tryck 1013 hPa
Sikt 10 km eller mer
Inga moln under 1 500 m eller inga cumulonimbus

METAR: LIMY 191755Z 10008KT CAVOK 26/22 Q1013 RMK SCT SCT190 VAL NIL VIS MIN 9999

Tid: 05:52 (03:52 UTC)


TAF: saknas

Aktuella väderrapporter och prognoser från 4000 flygplatser (METAR- och TAF-rapporter).

De tillgängliga stationerna syns som gula och röda prickar på kartan.

För musen över prickarna för att se namnen på stationerna.

Klicka sedan för att få väderrapporter och prognoser.

För att ändra kartan: Klicka på de gröna knapparna med ett svart kors på för att zooma in; den gröna knappen med ett streck på för att zooma ut; eller på de gröna pilarna för angränsande kartor.


METAR-TAF: